createdAt,value
2023-05-12T00:01:28.793Z,9.52
2023-05-12T00:03:55.565Z,9.54
2023-05-12T00:06:22.290Z,9.52
2023-05-12T00:08:48.820Z,9.54
2023-05-12T00:11:15.422Z,9.58
2023-05-12T00:13:41.965Z,9.59
2023-05-12T00:16:08.951Z,9.58
2023-05-12T00:18:35.666Z,9.58
2023-05-12T00:21:02.181Z,9.57
2023-05-12T00:23:28.652Z,9.56
2023-05-12T00:25:55.217Z,9.55
2023-05-12T00:28:21.746Z,9.53
2023-05-12T00:30:48.205Z,9.54
2023-05-12T00:33:14.742Z,9.55
2023-05-12T00:35:41.318Z,9.55
2023-05-12T00:38:07.842Z,9.54
2023-05-12T00:40:34.396Z,9.54
2023-05-12T00:43:00.907Z,9.53
2023-05-12T00:45:29.738Z,9.55
2023-05-12T00:47:57.135Z,9.54
2023-05-12T00:50:24.234Z,9.52
2023-05-12T00:52:50.886Z,9.55
2023-05-12T00:55:17.675Z,9.54
2023-05-12T00:57:44.400Z,9.53
2023-05-12T01:00:11.896Z,9.54
2023-05-12T01:02:39.079Z,9.55
2023-05-12T01:05:06.579Z,9.54
2023-05-12T01:07:33.722Z,9.55
2023-05-12T01:10:00.355Z,9.54
2023-05-12T01:12:28.065Z,9.52
2023-05-12T01:14:57.104Z,9.52
2023-05-12T01:17:35.072Z,9.54
2023-05-12T01:20:04.610Z,9.51
2023-05-12T01:22:33.565Z,9.50
2023-05-12T01:25:02.653Z,9.52
2023-05-12T01:27:30.016Z,9.52
2023-05-12T01:29:59.410Z,9.49
2023-05-12T01:32:26.438Z,9.49
2023-05-12T01:34:53.091Z,9.47
2023-05-12T01:37:19.860Z,9.46
2023-05-12T01:39:46.413Z,9.48
2023-05-12T01:42:13.103Z,9.48
2023-05-12T01:44:39.641Z,9.48
2023-05-12T01:47:09.854Z,9.46
2023-05-12T01:49:36.429Z,9.49
2023-05-12T01:52:03.104Z,9.51
2023-05-12T01:54:29.723Z,9.50
2023-05-12T01:56:56.213Z,9.45
2023-05-12T01:59:22.854Z,9.48
2023-05-12T02:01:49.613Z,9.48
2023-05-12T02:04:22.507Z,9.48
2023-05-12T02:06:49.002Z,9.44
2023-05-12T02:09:15.495Z,9.48
2023-05-12T02:11:41.987Z,9.51
2023-05-12T02:14:08.605Z,9.52
2023-05-12T02:16:35.192Z,9.52
2023-05-12T02:19:01.833Z,9.53
2023-05-12T02:21:28.418Z,9.54
2023-05-12T02:23:56.279Z,9.55
2023-05-12T02:26:22.905Z,9.55
2023-05-12T02:28:51.734Z,9.55
2023-05-12T02:31:18.333Z,9.58
2023-05-12T02:33:44.941Z,9.59
2023-05-12T02:36:12.844Z,9.62
2023-05-12T02:38:54.954Z,9.61
2023-05-12T02:41:21.495Z,9.60
2023-05-12T02:43:48.030Z,9.61
2023-05-12T02:46:14.547Z,9.62
2023-05-12T02:48:41.105Z,9.58
2023-05-12T02:51:10.506Z,9.58
2023-05-12T02:53:39.222Z,9.59
2023-05-12T02:56:10.797Z,9.61
2023-05-12T02:58:37.577Z,9.62
2023-05-12T03:02:12.070Z,9.60
2023-05-12T03:04:38.614Z,9.59
2023-05-12T03:10:25.789Z,9.62
2023-05-12T03:17:40.858Z,9.62
2023-05-12T03:20:10.196Z,9.60
2023-05-12T03:22:36.768Z,9.60
2023-05-12T03:28:03.647Z,9.62
2023-05-12T03:30:30.150Z,9.63
2023-05-12T03:32:56.683Z,9.62
2023-05-12T03:35:36.006Z,9.65
2023-05-12T03:38:02.502Z,9.64
2023-05-12T03:45:04.842Z,9.63
2023-05-12T03:55:55.945Z,9.59
2023-05-12T03:58:23.333Z,9.62
2023-05-12T04:00:50.814Z,9.64
2023-05-12T04:09:32.968Z,9.65
2023-05-12T04:11:59.347Z,9.65
2023-05-12T04:14:35.163Z,9.65
2023-05-12T04:17:06.029Z,9.68
2023-05-12T04:19:32.575Z,9.66
2023-05-12T04:21:59.051Z,9.68
2023-05-12T04:24:25.644Z,9.71
2023-05-12T04:26:52.161Z,9.74
2023-05-12T04:29:18.912Z,9.70
2023-05-12T04:31:45.470Z,9.74
2023-05-12T04:34:18.041Z,9.73
2023-05-12T04:36:44.526Z,9.69
2023-05-12T04:39:13.707Z,9.69
2023-05-12T04:41:40.242Z,9.70
2023-05-12T04:48:27.712Z,9.73
2023-05-12T04:51:00.272Z,9.78
2023-05-12T04:53:27.674Z,9.84
2023-05-12T04:56:12.797Z,9.87
2023-05-12T04:58:39.323Z,9.88
2023-05-12T05:01:05.928Z,9.88
2023-05-12T05:03:37.606Z,9.86
2023-05-12T05:09:50.203Z,9.86
2023-05-12T05:12:30.660Z,9.82
2023-05-12T05:15:03.105Z,9.81
2023-05-12T05:17:29.685Z,9.81
2023-05-12T05:19:59.356Z,9.81
2023-05-12T05:22:27.337Z,9.82
2023-05-12T05:24:53.918Z,9.82
2023-05-12T05:27:20.733Z,9.83
2023-05-12T05:29:47.339Z,9.82
2023-05-12T05:32:13.859Z,9.81
2023-05-12T05:34:40.483Z,9.83
2023-05-12T05:37:07.454Z,9.87
2023-05-12T05:39:33.981Z,9.90
2023-05-12T05:42:00.573Z,9.95
2023-05-12T05:44:27.083Z,9.98
2023-05-12T05:46:53.633Z,10.02
2023-05-12T05:49:20.158Z,10.07
2023-05-12T05:51:46.720Z,10.12
2023-05-12T05:54:13.281Z,10.17
2023-05-12T05:56:39.763Z,10.19
2023-05-12T05:59:06.343Z,10.20
2023-05-12T06:01:33.060Z,10.24
2023-05-12T06:03:59.838Z,10.31
2023-05-12T06:06:26.523Z,10.33
2023-05-12T06:08:55.977Z,10.42
2023-05-12T06:11:22.720Z,10.49
2023-05-12T06:13:49.264Z,10.54
2023-05-12T06:16:15.846Z,10.56
2023-05-12T06:18:42.543Z,10.59
2023-05-12T06:21:09.617Z,10.44
2023-05-12T06:23:36.205Z,10.43
2023-05-12T06:26:03.180Z,10.42
2023-05-12T06:28:29.732Z,10.48
2023-05-12T06:30:56.325Z,10.57
2023-05-12T06:33:22.826Z,10.56
2023-05-12T06:35:49.350Z,10.58
2023-05-12T06:38:15.906Z,10.62
2023-05-12T06:40:42.421Z,10.65
2023-05-12T06:43:08.933Z,10.69
2023-05-12T06:45:35.499Z,10.78
2023-05-12T06:48:03.207Z,10.96
2023-05-12T06:50:29.831Z,11.14
2023-05-12T06:52:56.324Z,11.40
2023-05-12T06:55:23.443Z,11.62
2023-05-12T06:57:57.476Z,11.83
2023-05-12T07:00:24.886Z,11.90
2023-05-12T07:02:52.150Z,12.04
2023-05-12T07:05:19.178Z,12.12
2023-05-12T07:07:45.847Z,12.12
2023-05-12T07:10:12.415Z,12.27
2023-05-12T07:12:39.331Z,12.41
2023-05-12T07:15:06.836Z,12.57
2023-05-12T07:17:33.375Z,12.71
2023-05-12T07:20:00.001Z,12.66
2023-05-12T07:22:26.818Z,12.67
2023-05-12T07:24:53.443Z,12.61
2023-05-12T07:30:08.658Z,12.51
2023-05-12T07:32:35.332Z,12.55
2023-05-12T07:35:02.053Z,12.38
2023-05-12T07:37:28.640Z,12.37
2023-05-12T07:40:00.705Z,12.30
2023-05-12T07:42:29.950Z,12.18
2023-05-12T07:45:02.571Z,12.23
2023-05-12T07:47:31.238Z,12.35
2023-05-12T07:49:58.141Z,12.47
2023-05-12T07:52:24.961Z,12.38
2023-05-12T07:54:51.498Z,12.49
2023-05-12T07:57:18.036Z,12.70
2023-05-12T07:59:44.594Z,12.82
2023-05-12T08:02:11.157Z,13.05
2023-05-12T08:04:37.823Z,13.21
2023-05-12T08:07:04.729Z,13.24
2023-05-12T08:09:31.163Z,13.18
2023-05-12T08:11:57.720Z,13.31
2023-05-12T08:14:25.667Z,13.44
2023-05-12T08:16:52.371Z,13.50
2023-05-12T08:19:19.019Z,13.62
2023-05-12T08:21:45.685Z,13.73
2023-05-12T08:24:12.232Z,13.86
2023-05-12T08:26:38.736Z,13.88
2023-05-12T08:29:06.640Z,13.82
2023-05-12T08:31:33.445Z,13.87
2023-05-12T08:34:09.867Z,13.79
2023-05-12T08:36:38.744Z,13.71
2023-05-12T08:39:05.384Z,13.62
2023-05-12T08:41:38.843Z,13.51
2023-05-12T08:44:06.511Z,13.42
2023-05-12T08:46:33.337Z,13.29
2023-05-12T08:49:02.509Z,13.09
2023-05-12T08:51:31.691Z,12.99
2023-05-12T08:53:58.989Z,12.89
2023-05-12T08:58:56.454Z,12.60
2023-05-12T09:01:23.274Z,12.54
2023-05-12T09:03:52.931Z,12.57
2023-05-12T09:06:19.771Z,12.54
2023-05-12T09:08:46.333Z,12.52
2023-05-12T09:11:13.781Z,12.57
2023-05-12T09:14:02.691Z,12.63
2023-05-12T09:16:31.765Z,12.71
2023-05-12T09:19:00.222Z,12.83
2023-05-12T09:21:27.812Z,12.88
2023-05-12T09:24:03.199Z,12.81
2023-05-12T09:26:29.844Z,12.90
2023-05-12T09:29:07.187Z,13.07
2023-05-12T09:31:34.565Z,13.15
2023-05-12T09:34:13.420Z,13.28
2023-05-12T09:36:42.926Z,13.46
2023-05-12T09:39:10.447Z,13.80
2023-05-12T09:41:37.766Z,14.03
2023-05-12T09:44:05.378Z,14.08
2023-05-12T09:46:35.652Z,14.08
2023-05-12T09:49:07.921Z,14.07
2023-05-12T09:51:37.879Z,13.94
2023-05-12T09:54:07.591Z,13.75
2023-05-12T09:56:54.198Z,13.33
2023-05-12T09:59:21.326Z,13.23
2023-05-12T10:01:50.392Z,13.13
2023-05-12T10:04:17.342Z,13.09
2023-05-12T10:06:53.153Z,12.99
2023-05-12T10:09:39.208Z,12.91
2023-05-12T10:12:06.487Z,13.20
2023-05-12T10:14:33.789Z,13.18
2023-05-12T10:17:01.798Z,13.37
2023-05-12T10:19:34.820Z,13.82
2023-05-12T10:22:01.989Z,14.50
2023-05-12T10:24:54.428Z,14.89
2023-05-12T10:27:22.476Z,15.36
2023-05-12T10:29:51.502Z,15.58
2023-05-12T10:32:19.565Z,15.47
2023-05-12T10:34:46.409Z,15.31
2023-05-12T10:37:13.100Z,15.10
2023-05-12T10:39:52.193Z,14.59
2023-05-12T10:42:26.891Z,13.99
2023-05-12T10:44:54.386Z,13.90
2023-05-12T10:47:26.935Z,13.62
2023-05-12T10:49:59.721Z,13.33
2023-05-12T10:52:26.339Z,13.19
2023-05-12T10:55:00.856Z,13.10
2023-05-12T10:57:28.885Z,12.81
2023-05-12T11:00:01.011Z,12.77
2023-05-12T11:02:32.362Z,12.94
2023-05-12T11:05:05.312Z,12.66
2023-05-12T11:07:35.094Z,12.67
2023-05-12T11:10:04.750Z,12.73
2023-05-12T11:12:35.438Z,13.05
2023-05-12T11:15:02.516Z,13.37
2023-05-12T11:17:29.303Z,13.54
2023-05-12T11:19:59.124Z,13.59
2023-05-12T11:22:25.947Z,13.41
2023-05-12T11:24:53.020Z,13.48
2023-05-12T11:27:21.269Z,13.22
2023-05-12T11:29:59.708Z,13.01
2023-05-12T11:32:26.740Z,12.91
2023-05-12T11:34:53.342Z,12.60
2023-05-12T11:37:21.125Z,12.45
2023-05-12T11:39:48.183Z,12.54
2023-05-12T11:42:16.291Z,12.63
2023-05-12T11:44:49.517Z,12.66
2023-05-12T11:47:17.189Z,12.64
2023-05-12T11:49:50.988Z,12.63
2023-05-12T11:52:19.643Z,12.46
2023-05-12T11:55:06.051Z,12.42
2023-05-12T11:57:36.341Z,12.34
2023-05-12T12:00:07.933Z,12.38
2023-05-12T12:02:36.754Z,12.37
2023-05-12T12:05:03.573Z,12.53
2023-05-12T12:07:32.044Z,12.57
2023-05-12T12:09:59.538Z,12.63
2023-05-12T12:12:26.061Z,12.65
2023-05-12T12:14:52.540Z,12.76
2023-05-12T12:17:19.035Z,12.92
2023-05-12T12:19:47.764Z,13.03
2023-05-12T12:22:14.434Z,13.32
2023-05-12T12:24:40.984Z,13.77
2023-05-12T12:27:07.594Z,14.31
2023-05-12T12:29:34.197Z,14.86
2023-05-12T12:32:00.754Z,14.88
2023-05-12T12:34:27.195Z,14.88
2023-05-12T12:36:53.750Z,15.01
2023-05-12T12:39:23.186Z,15.14
2023-05-12T12:41:50.236Z,15.03
2023-05-12T12:44:17.757Z,15.54
2023-05-12T12:46:44.361Z,15.64
2023-05-12T12:49:11.305Z,15.90
2023-05-12T12:51:45.719Z,16.14
2023-05-12T12:54:13.147Z,16.13
2023-05-12T12:56:39.731Z,16.21
2023-05-12T12:59:06.474Z,16.49
2023-05-12T13:01:33.965Z,16.43
2023-05-12T13:04:01.121Z,15.96
2023-05-12T13:06:27.776Z,15.52
2023-05-12T13:08:54.381Z,14.95
2023-05-12T13:11:20.885Z,14.84
2023-05-12T13:13:47.453Z,14.46
2023-05-12T13:16:14.061Z,14.21
2023-05-12T13:18:40.700Z,13.82
2023-05-12T13:21:07.323Z,13.93
2023-05-12T13:23:33.836Z,13.76
2023-05-12T13:26:00.478Z,13.98
2023-05-12T13:28:26.971Z,14.22
2023-05-12T13:30:53.505Z,14.69
2023-05-12T13:33:20.483Z,15.24
2023-05-12T13:35:47.010Z,15.50
2023-05-12T13:38:13.748Z,16.06
2023-05-12T13:40:41.595Z,15.65
2023-05-12T13:43:08.509Z,16.40
2023-05-12T13:45:34.989Z,16.39
2023-05-12T13:48:01.565Z,16.58
2023-05-12T13:50:28.180Z,17.01
2023-05-12T13:52:54.726Z,17.16
2023-05-12T13:55:22.079Z,17.33
2023-05-12T13:57:49.132Z,17.42
2023-05-12T14:00:17.305Z,17.17
2023-05-12T14:02:44.062Z,16.56
2023-05-12T14:05:10.849Z,16.45
2023-05-12T14:07:37.575Z,16.13
2023-05-12T14:10:04.196Z,15.59
2023-05-12T14:12:31.210Z,15.42
2023-05-12T14:15:07.288Z,14.88
2023-05-12T14:17:44.516Z,14.32
2023-05-12T14:20:11.595Z,14.18
2023-05-12T14:22:38.203Z,14.10
2023-05-12T14:25:05.083Z,13.78
2023-05-12T14:27:31.608Z,13.90
2023-05-12T14:29:58.107Z,13.89
2023-05-12T14:32:24.736Z,13.89
2023-05-12T14:34:51.330Z,13.86
2023-05-12T14:37:17.840Z,13.83
2023-05-12T14:39:44.392Z,13.95
2023-05-12T14:42:10.876Z,14.13
2023-05-12T14:44:37.586Z,14.22
2023-05-12T14:47:04.201Z,14.08
2023-05-12T14:49:30.710Z,13.95
2023-05-12T14:51:57.381Z,14.07
2023-05-12T14:54:25.953Z,14.15
2023-05-12T14:56:53.066Z,14.01
2023-05-12T14:59:19.722Z,14.18
2023-05-12T15:01:46.602Z,13.92
2023-05-12T15:04:13.347Z,13.96
2023-05-12T15:06:40.058Z,13.81
2023-05-12T15:09:07.287Z,13.67
2023-05-12T15:11:33.892Z,13.79
2023-05-12T15:14:00.414Z,13.98
2023-05-12T15:16:28.037Z,14.03
2023-05-12T15:18:54.909Z,13.89
2023-05-12T15:21:24.428Z,13.78
2023-05-12T15:23:50.956Z,13.66
2023-05-12T15:26:31.878Z,13.68
2023-05-12T15:29:00.670Z,13.72
2023-05-12T15:31:29.329Z,13.66
2023-05-12T15:33:59.285Z,13.82
2023-05-12T15:36:25.851Z,13.85
2023-05-12T15:38:52.400Z,13.82
2023-05-12T15:41:19.018Z,13.78
2023-05-12T15:43:45.605Z,13.74
2023-05-12T15:46:12.287Z,13.84
2023-05-12T15:48:39.385Z,13.87
2023-05-12T15:51:06.595Z,13.88
2023-05-12T15:53:33.266Z,13.87
2023-05-12T15:56:03.982Z,13.88
2023-05-12T15:58:31.388Z,13.88
2023-05-12T16:00:58.129Z,13.91
2023-05-12T16:03:24.893Z,13.78
2023-05-12T16:05:51.773Z,13.70
2023-05-12T16:08:18.701Z,13.71
2023-05-12T16:10:45.195Z,13.54
2023-05-12T16:13:11.746Z,13.43
2023-05-12T16:15:38.258Z,13.30
2023-05-12T16:18:06.980Z,13.30
2023-05-12T16:20:35.150Z,13.21
2023-05-12T16:23:02.427Z,13.06
2023-05-12T16:25:29.126Z,12.88
2023-05-12T16:27:55.957Z,12.83
2023-05-12T16:30:22.621Z,12.87
2023-05-12T16:32:49.367Z,12.55
2023-05-12T16:35:15.995Z,12.62
2023-05-12T16:37:42.682Z,12.67
2023-05-12T16:40:09.698Z,12.70
2023-05-12T16:42:36.669Z,12.61
2023-05-12T16:45:03.350Z,12.62
2023-05-12T16:47:29.924Z,12.42
2023-05-12T16:49:58.100Z,12.39
2023-05-12T16:52:25.523Z,12.42
2023-05-12T16:54:53.193Z,12.27
2023-05-12T16:57:20.487Z,12.27
2023-05-12T16:59:48.466Z,12.15
2023-05-12T17:02:15.420Z,12.08
2023-05-12T17:04:42.017Z,12.02
2023-05-12T17:07:09.131Z,11.96
2023-05-12T17:09:35.671Z,11.90
2023-05-12T17:12:02.829Z,11.82
2023-05-12T17:14:29.293Z,11.82
2023-05-12T17:16:55.828Z,11.80
2023-05-12T17:19:22.399Z,11.76
2023-05-12T17:21:48.935Z,11.82
2023-05-12T17:24:15.562Z,11.78
2023-05-12T17:26:42.244Z,11.86
2023-05-12T17:29:08.979Z,11.86
2023-05-12T17:31:37.335Z,11.81
2023-05-12T17:34:04.031Z,11.72
2023-05-12T17:36:31.052Z,11.69
2023-05-12T17:38:57.567Z,11.67
2023-05-12T17:41:24.853Z,11.65
2023-05-12T17:43:52.480Z,11.53
2023-05-12T17:46:19.163Z,11.53
2023-05-12T17:48:45.848Z,11.43
2023-05-12T17:51:12.351Z,11.42
2023-05-12T17:53:38.930Z,11.35
2023-05-12T17:56:05.842Z,11.35
2023-05-12T17:58:32.443Z,11.30
2023-05-12T18:00:59.105Z,11.27
2023-05-12T18:03:25.722Z,11.23
2023-05-12T18:05:53.419Z,11.24
2023-05-12T18:08:20.240Z,11.21
2023-05-12T18:10:46.880Z,11.22
2023-05-12T18:13:14.624Z,11.17
2023-05-12T18:15:41.865Z,11.15
2023-05-12T18:18:10.078Z,11.12
2023-05-12T18:20:37.009Z,11.08
2023-05-12T18:23:03.556Z,11.07
2023-05-12T18:25:30.117Z,11.05
2023-05-12T18:27:56.808Z,10.94
2023-05-12T18:30:23.336Z,10.93
2023-05-12T18:32:50.728Z,10.93
2023-05-12T18:35:17.394Z,10.88
2023-05-12T18:37:44.059Z,10.88
2023-05-12T18:40:11.270Z,10.87
2023-05-12T18:42:38.608Z,10.88
2023-05-12T18:45:05.860Z,10.91
2023-05-12T18:47:33.450Z,10.91
2023-05-12T18:50:00.174Z,10.89
2023-05-12T18:52:26.716Z,10.85
2023-05-12T18:54:53.210Z,10.75
2023-05-12T18:57:19.722Z,10.76
2023-05-12T18:59:46.314Z,10.75
2023-05-12T19:02:12.978Z,10.71
2023-05-12T19:04:39.572Z,10.70
2023-05-12T19:07:09.684Z,10.68
2023-05-12T19:09:37.163Z,10.68
2023-05-12T19:12:05.974Z,10.68
2023-05-12T19:14:32.774Z,10.65
2023-05-12T19:16:59.344Z,10.64
2023-05-12T19:19:25.875Z,10.63
2023-05-12T19:21:52.563Z,10.63
2023-05-12T19:24:19.434Z,10.60
2023-05-12T19:26:46.238Z,10.59
2023-05-12T19:29:12.721Z,10.56
2023-05-12T19:31:39.372Z,10.56
2023-05-12T19:34:06.258Z,10.55
2023-05-12T19:36:32.926Z,10.54
2023-05-12T19:39:00.404Z,10.54
2023-05-12T19:41:28.037Z,10.52
2023-05-12T19:43:55.659Z,10.56
2023-05-12T19:46:22.577Z,10.54
2023-05-12T19:48:49.194Z,10.55
2023-05-12T19:51:15.796Z,10.54
2023-05-12T19:53:43.708Z,10.52
2023-05-12T19:56:10.346Z,10.53
2023-05-12T19:58:36.860Z,10.49
2023-05-12T20:01:03.433Z,10.49
2023-05-12T20:03:30.051Z,10.50
2023-05-12T20:05:56.877Z,10.51
2023-05-12T20:08:23.395Z,10.47
2023-05-12T20:10:49.881Z,10.46
2023-05-12T20:13:16.461Z,10.48
2023-05-12T20:15:44.093Z,10.44
2023-05-12T20:18:12.707Z,10.42
2023-05-12T20:20:39.344Z,10.38
2023-05-12T20:23:05.866Z,10.40
2023-05-12T20:25:33.168Z,10.40
2023-05-12T20:27:59.965Z,10.39
2023-05-12T20:30:26.856Z,10.37
2023-05-12T20:32:53.515Z,10.39
2023-05-12T20:35:20.537Z,10.41
2023-05-12T20:37:47.600Z,10.38
2023-05-12T20:40:14.319Z,10.38
2023-05-12T20:42:40.887Z,10.36
2023-05-12T20:45:08.712Z,10.39
2023-05-12T20:47:36.627Z,10.35
2023-05-12T20:50:05.695Z,10.35
2023-05-12T20:52:42.098Z,10.29
2023-05-12T20:55:09.606Z,10.28
2023-05-12T20:57:37.733Z,10.27
2023-05-12T21:00:04.902Z,10.25
2023-05-12T21:02:31.658Z,10.26
2023-05-12T21:04:58.314Z,10.26
2023-05-12T21:07:24.967Z,10.25
2023-05-12T21:09:51.516Z,10.25
2023-05-12T21:12:18.137Z,10.18
2023-05-12T21:14:45.185Z,10.20
2023-05-12T21:17:12.323Z,10.17
2023-05-12T21:19:40.056Z,10.18
2023-05-12T21:22:07.653Z,10.14
2023-05-12T21:24:34.318Z,10.11
2023-05-12T21:27:05.079Z,10.10
2023-05-12T21:29:32.735Z,10.10
2023-05-12T21:32:00.068Z,10.11
2023-05-12T21:34:27.012Z,10.11
2023-05-12T21:36:54.800Z,10.08
2023-05-12T21:39:22.052Z,10.01
2023-05-12T21:41:49.002Z,10.02
2023-05-12T21:44:16.233Z,10.01
2023-05-12T21:46:42.949Z,9.94
2023-05-12T21:49:09.880Z,9.95
2023-05-12T21:51:36.492Z,9.91
2023-05-12T21:54:03.217Z,9.89
2023-05-12T21:56:29.784Z,9.89
2023-05-12T21:58:56.425Z,9.90
2023-05-12T22:01:23.135Z,9.85
2023-05-12T22:03:49.875Z,9.82
2023-05-12T22:06:16.931Z,9.80
2023-05-12T22:08:43.569Z,9.78
2023-05-12T22:11:11.210Z,9.77
2023-05-12T22:13:38.015Z,9.76
2023-05-12T22:16:04.947Z,9.78
2023-05-12T22:18:32.029Z,9.78
2023-05-12T22:20:58.910Z,9.77
2023-05-12T22:23:25.576Z,9.79
2023-05-12T22:25:52.291Z,9.78
2023-05-12T22:28:18.816Z,9.80
2023-05-12T22:30:45.520Z,9.76
2023-05-12T22:33:12.122Z,9.76
2023-05-12T22:35:38.753Z,9.79
2023-05-12T22:38:05.817Z,9.76
2023-05-12T22:40:33.665Z,9.77
2023-05-12T22:43:00.249Z,9.80
2023-05-12T22:45:26.889Z,9.76
2023-05-12T22:47:53.598Z,9.78
2023-05-12T22:50:20.730Z,9.77
2023-05-12T22:52:47.445Z,9.81
2023-05-12T22:55:14.134Z,9.77
2023-05-12T22:57:41.048Z,9.76
2023-05-12T23:00:08.254Z,9.79
2023-05-12T23:02:34.978Z,9.74
2023-05-12T23:05:01.602Z,9.73
2023-05-12T23:07:28.239Z,9.76
2023-05-12T23:09:54.757Z,9.77
2023-05-12T23:12:21.319Z,9.77
2023-05-12T23:14:47.907Z,9.75
2023-05-12T23:17:14.405Z,9.72
2023-05-12T23:19:40.939Z,9.71
2023-05-12T23:22:07.467Z,9.73
2023-05-12T23:24:35.960Z,9.72
2023-05-12T23:27:02.572Z,9.75
2023-05-12T23:29:29.176Z,9.73
2023-05-12T23:31:56.460Z,9.70
2023-05-12T23:34:23.120Z,9.71
2023-05-12T23:36:49.761Z,9.74
2023-05-12T23:39:16.528Z,9.73
2023-05-12T23:41:43.095Z,9.69
2023-05-12T23:44:09.589Z,9.69
2023-05-12T23:46:36.576Z,9.71
2023-05-12T23:49:03.711Z,9.71
2023-05-12T23:51:30.250Z,9.71
2023-05-12T23:53:56.777Z,9.70
2023-05-12T23:56:23.351Z,9.71
2023-05-12T23:58:49.954Z,9.70
